Time;durP1;ratioP1;P1;durP2;ratioP2;P2;SDS_P1;SDS_P2;PMS_P1;PMS_P2;Temp;Humidity;BMP_temperature;BMP_pressure;BME280_temperature;BME280_humidity;BME280_pressure;Samples;Min_cycle;Max_cycle;Signal;HPM_P1;HPM_P2
2022/10/21 00:00:30;;;;;;;1999.90;999.90;;;15.20;99.90;;;;;;5094092;28;20178;-67
2022/10/21 00:02:56;;;;;;;1999.90;999.90;;;15.20;99.90;;;;;;5093846;28;20557;-66
2022/10/21 00:05:22;;;;;;;1999.90;999.90;;;15.20;99.90;;;;;;5093937;28;20169;-66
2022/10/21 00:07:47;;;;;;;1999.90;999.90;;;15.20;99.90;;;;;;5093643;28;20404;-67
2022/10/21 00:10:13;;;;;;;1999.90;999.90;;;15.20;99.90;;;;;;5093762;28;20166;-66
2022/10/21 00:12:39;;;;;;;1999.90;999.90;;;15.20;99.90;;;;;;5093723;28;20190;-66
2022/10/21 00:15:06;;;;;;;1999.90;999.90;;;15.20;99.90;;;;;;5093829;28;20179;-66
2022/10/21 00:17:37;;;;;;;1999.90;999.90;;;15.20;99.90;;;;;;5093407;28;20184;-66
2022/10/21 00:20:09;;;;;;;1999.90;999.90;;;15.30;99.90;;;;;;5093662;28;20443;-65
2022/10/21 00:22:35;;;;;;;1999.90;999.90;;;15.20;99.90;;;;;;5093516;28;20420;-66
2022/10/21 00:25:01;;;;;;;1999.90;999.90;;;15.10;99.90;;;;;;5093329;28;20453;-66
2022/10/21 00:27:26;;;;;;;1999.90;999.90;;;15.10;99.90;;;;;;5092998;28;20165;-67
2022/10/21 00:29:52;;;;;;;1999.90;999.90;;;15.00;99.90;;;;;;5093552;28;20603;-66
2022/10/21 00:32:18;;;;;;;1999.90;999.90;;;15.00;99.90;;;;;;5093276;28;20209;-66
2022/10/21 00:34:43;;;;;;;1999.90;999.90;;;15.00;99.90;;;;;;5093397;28;20298;-66
2022/10/21 00:37:10;;;;;;;1999.90;999.90;;;15.00;99.90;;;;;;5093152;28;20173;-66
2022/10/21 00:39:39;;;;;;;1999.90;999.90;;;14.90;99.90;;;;;;5093239;28;20177;-66
2022/10/21 00:42:09;;;;;;;1999.90;999.90;;;15.00;99.90;;;;;;5093265;28;20426;-67
2022/10/21 00:44:36;;;;;;;1999.90;999.90;;;15.00;99.90;;;;;;5093158;28;20455;-66
2022/10/21 00:47:06;;;;;;;1999.90;999.90;;;14.90;99.90;;;;;;5092907;28;20972;-66
2022/10/21 00:49:54;;;;;;;1999.90;999.90;;;14.90;99.90;;;;;;5093326;28;20405;-68
2022/10/21 00:52:21;;;;;;;1999.90;999.90;;;14.90;99.90;;;;;;5093045;28;20461;-66
2022/10/21 00:54:51;;;;;;;1999.90;999.90;;;14.90;99.90;;;;;;5093014;28;20418;-67
2022/10/21 00:57:19;;;;;;;1999.90;999.90;;;14.90;99.90;;;;;;5092995;28;20915;-66
2022/10/21 00:59:49;;;;;;;1999.90;999.90;;;14.90;99.90;;;;;;5092799;28;20779;-66
2022/10/21 01:02:15;;;;;;;1999.90;999.90;;;14.90;99.90;;;;;;5092878;28;20431;-68
2022/10/21 01:04:41;;;;;;;1999.90;999.90;;;14.80;99.90;;;;;;5092907;28;20455;-65
2022/10/21 01:07:07;;;;;;;1999.90;999.90;;;14.80;99.90;;;;;;5092643;28;20397;-65
2022/10/21 01:09:32;;;;;;;1999.90;999.90;;;14.70;99.90;;;;;;5092673;28;20487;-66
2022/10/21 01:12:01;;;;;;;1999.90;999.90;;;14.70;99.90;;;;;;5092551;28;20190;-66
2022/10/21 01:14:30;;;;;;;1999.90;999.90;;;14.70;99.90;;;;;;5092619;28;20172;-66
2022/10/21 01:17:27;;;;;;;1999.90;999.90;;;14.70;99.90;;;;;;5092367;28;20400;-66
2022/10/21 01:20:08;;;;;;;1999.90;999.90;;;14.70;99.90;;;;;;5076240;28;20475;-66
2022/10/21 01:23:05;;;;;;;1999.90;999.90;;;14.70;99.90;;;;;;5092427;28;20510;-67
2022/10/21 01:25:49;;;;;;;1999.90;999.90;;;14.70;99.90;;;;;;5092480;28;20404;-67
2022/10/21 01:28:24;;;;;;;1999.90;999.90;;;14.70;99.90;;;;;;5092334;28;20422;-67
2022/10/21 01:31:00;;;;;;;1999.90;999.90;;;14.70;99.90;;;;;;5092423;28;20438;-66
2022/10/21 01:33:38;;;;;;;1999.90;999.90;;;14.80;99.90;;;;;;5092452;28;20397;-66
2022/10/21 01:36:09;;;;;;;1999.90;999.90;;;14.80;99.90;;;;;;5092381;28;20399;-67
2022/10/21 01:38:42;;;;;;;1999.90;999.90;;;14.80;99.90;;;;;;5091306;28;20942;-66
2022/10/21 01:41:24;;;;;;;1999.90;999.90;;;14.80;99.90;;;;;;5092252;28;20835;-67
2022/10/21 01:44:10;;;;;;;1999.90;999.90;;;14.70;99.90;;;;;;5092440;28;20870;-67
2022/10/21 01:46:48;;;;;;;1999.90;999.90;;;14.80;99.90;;;;;;5092068;28;21022;-67
2022/10/21 01:49:30;;;;;;;1999.90;999.90;;;14.80;99.90;;;;;;5092193;28;20409;-66
2022/10/21 01:51:58;;;;;;;1999.90;999.90;;;14.70;99.90;;;;;;5092215;28;20483;-66
2022/10/21 01:54:38;;;;;;;1999.90;999.90;;;14.60;99.90;;;;;;5092102;28;20418;-67
2022/10/21 01:57:06;;;;;;;1999.90;999.90;;;14.60;99.90;;;;;;5091977;28;20415;-67
2022/10/21 01:59:33;;;;;;;1999.90;999.90;;;14.70;99.90;;;;;;5092040;28;20400;-67
2022/10/21 02:02:03;;;;;;;1999.90;999.90;;;14.60;99.90;;;;;;5091941;28;20417;-67
2022/10/21 02:04:32;;;;;;;1999.90;999.90;;;14.60;99.90;;;;;;5092152;28;20463;-66
2022/10/21 02:06:57;;;;;;;1999.90;999.90;;;14.60;99.90;;;;;;5091756;28;20440;-67
2022/10/21 02:09:24;;;;;;;1999.90;999.90;;;14.60;99.90;;;;;;5091884;28;20484;-67
2022/10/21 02:11:54;;;;;;;1999.90;999.90;;;14.60;99.90;;;;;;5091901;28;20183;-67
2022/10/21 02:14:29;;;;;;;1999.90;999.90;;;14.50;99.90;;;;;;5092080;28;20401;-67
2022/10/21 02:16:57;;;;;;;1999.90;999.90;;;14.50;99.90;;;;;;5091799;28;20397;-67
2022/10/21 02:19:23;;;;;;;1999.90;999.90;;;14.50;99.90;;;;;;5091914;28;20439;-65
2022/10/21 02:21:51;;;;;;;1999.90;999.90;;;14.40;99.90;;;;;;5091949;28;20429;-66
2022/10/21 02:24:29;;;;;;;1999.90;999.90;;;14.40;99.90;;;;;;5091782;28;20803;-66
2022/10/21 02:26:55;;;;;;;1999.90;999.90;;;14.40;99.90;;;;;;5091669;28;20399;-67
2022/10/21 02:29:24;;;;;;;1999.90;999.90;;;14.30;99.90;;;;;;5091717;28;20397;-67
2022/10/21 02:32:02;;;;;;;1999.90;999.90;;;14.30;99.90;;;;;;5091597;28;20230;-67
2022/10/21 02:34:33;;;;;;;1999.90;999.90;;;14.30;99.90;;;;;;5091950;28;20403;-66
2022/10/21 02:37:36;;;;;;;1999.90;999.90;;;14.30;99.90;;;;;;5091622;28;20412;-66
2022/10/21 02:40:17;;;;;;;1999.90;999.90;;;14.30;99.90;;;;;;5091664;28;20400;-66
2022/10/21 02:42:48;;;;;;;1999.90;999.90;;;14.30;99.90;;;;;;5091667;28;20408;-66
2022/10/21 02:45:16;;;;;;;1999.90;999.90;;;14.20;99.90;;;;;;5091771;28;20498;-66
2022/10/21 02:47:43;;;;;;;1999.90;999.90;;;14.20;99.90;;;;;;5091279;28;20405;-67
2022/10/21 02:50:09;;;;;;;1999.90;999.90;;;14.20;99.90;;;;;;5094970;28;20418;-67
2022/10/21 02:52:35;;;;;;;1999.90;999.90;;;14.20;99.90;;;;;;5095330;28;20408;-67
2022/10/21 02:55:00;;;;;;;1999.90;999.90;;;14.30;99.90;;;;;;5095354;28;20482;-67
2022/10/21 02:57:26;;;;;;;1999.90;999.90;;;14.20;99.90;;;;;;5095150;28;20696;-66
2022/10/21 02:59:51;;;;;;;1999.90;999.90;;;14.20;99.90;;;;;;5095245;28;20167;-66
2022/10/21 03:02:17;;;;;;;1999.90;999.90;;;14.30;99.90;;;;;;5095163;28;20250;-65
2022/10/21 03:04:43;;;;;;;1999.90;999.90;;;14.20;99.90;;;;;;5094972;28;20194;-67
2022/10/21 03:07:08;;;;;;;1999.90;999.90;;;14.20;99.90;;;;;;5094930;28;20688;-66
2022/10/21 03:09:34;;;;;;;1999.90;999.90;;;14.10;99.90;;;;;;5095038;28;20176;-66
2022/10/21 03:11:59;;;;;;;1999.90;999.90;;;14.10;99.90;;;;;;5094953;28;20192;-66
2022/10/21 03:14:25;;;;;;;1999.90;999.90;;;14.10;99.90;;;;;;5094964;28;20198;-65
2022/10/21 03:16:50;;;;;;;1999.90;999.90;;;14.10;99.90;;;;;;5094649;28;20166;-67
2022/10/21 03:19:16;;;;;;;1999.90;999.90;;;14.10;99.90;;;;;;5094835;28;20166;-66
2022/10/21 03:21:42;;;;;;;1999.90;999.90;;;14.10;99.90;;;;;;5094752;28;20197;-67
2022/10/21 03:24:07;;;;;;;1999.90;999.90;;;14.10;99.90;;;;;;5094752;28;20724;-67
2022/10/21 03:26:33;;;;;;;1999.90;999.90;;;14.10;99.90;;;;;;5094669;28;20185;-67
2022/10/21 03:28:58;;;;;;;1999.90;999.90;;;14.00;99.90;;;;;;5094547;28;20167;-66
2022/10/21 03:31:24;;;;;;;1999.90;999.90;;;14.10;99.90;;;;;;5094478;28;20271;-67
2022/10/21 03:33:49;;;;;;;1999.90;999.90;;;14.10;99.90;;;;;;5094457;28;20227;-66
2022/10/21 03:36:15;;;;;;;1999.90;999.90;;;14.00;99.90;;;;;;5094463;28;20178;-67
2022/10/21 03:38:41;;;;;;;1999.90;999.90;;;14.00;99.90;;;;;;5094304;28;20170;-67
2022/10/21 03:41:06;;;;;;;1999.90;999.90;;;14.00;99.90;;;;;;5094430;28;20174;-66
2022/10/21 03:43:32;;;;;;;1999.90;999.90;;;13.90;99.90;;;;;;5094352;28;20194;-66
2022/10/21 03:45:57;;;;;;;1999.90;999.90;;;13.90;99.90;;;;;;5094238;28;20175;-66
2022/10/21 03:48:23;;;;;;;1999.90;999.90;;;13.90;99.90;;;;;;5094085;28;20613;-67
2022/10/21 03:50:48;;;;;;;1999.90;999.90;;;13.80;99.90;;;;;;5094267;28;20674;-68
2022/10/21 03:53:14;;;;;;;1999.90;999.90;;;13.90;99.90;;;;;;5094177;28;20529;-67
2022/10/21 03:55:40;;;;;;;1999.90;999.90;;;14.00;99.90;;;;;;5094128;28;20170;-66
2022/10/21 03:58:05;;;;;;;1999.90;999.90;;;14.10;99.90;;;;;;5093949;28;20246;-66
2022/10/21 04:00:31;;;;;;;1999.90;999.90;;;14.10;99.90;;;;;;5093117;28;20174;-66
2022/10/21 04:02:57;;;;;;;1999.90;999.90;;;14.10;99.90;;;;;;5093855;28;20186;-66
2022/10/21 04:05:22;;;;;;;1999.90;999.90;;;14.20;99.90;;;;;;5094109;28;20535;-66
2022/10/21 04:07:48;;;;;;;1999.90;999.90;;;14.30;99.90;;;;;;5093683;28;20231;-66
2022/10/21 04:10:13;;;;;;;1999.90;999.90;;;14.30;99.90;;;;;;5093930;28;20172;-66
2022/10/21 04:12:39;;;;;;;1999.90;999.90;;;14.30;99.90;;;;;;5093761;28;20724;-66
2022/10/21 04:15:06;;;;;;;1999.90;999.90;;;14.40;99.90;;;;;;5093797;28;20243;-67
2022/10/21 04:17:32;;;;;;;1999.90;999.90;;;14.40;99.90;;;;;;5093467;28;20175;-66
2022/10/21 04:19:57;;;;;;;1999.90;999.90;;;14.50;99.90;;;;;;5093727;28;20764;-68
2022/10/21 04:22:23;;;;;;;1999.90;999.90;;;14.50;99.90;;;;;;5093655;28;20611;-65
2022/10/21 04:24:48;;;;;;;1999.90;999.90;;;14.50;99.90;;;;;;5093490;28;20212;-67
2022/10/21 04:27:14;;;;;;;1999.90;999.90;;;14.50;99.90;;;;;;5093391;28;20174;-66
2022/10/21 04:29:40;;;;;;;1999.90;999.90;;;14.50;99.90;;;;;;5093452;28;20550;-66
2022/10/21 04:32:05;;;;;;;1999.90;999.90;;;14.60;99.90;;;;;;5093141;28;20209;-66
2022/10/21 04:34:31;;;;;;;1999.90;999.90;;;14.60;99.90;;;;;;5093488;28;20175;-67
2022/10/21 04:36:57;;;;;;;1999.90;999.90;;;14.60;99.90;;;;;;5093185;28;20181;-66
2022/10/21 04:39:22;;;;;;;1999.90;999.90;;;14.60;99.90;;;;;;5093223;28;20174;-66
2022/10/21 04:41:49;;;;;;;1999.90;999.90;;;14.70;99.90;;;;;;5093214;28;20194;-67
2022/10/21 04:44:15;;;;;;;1999.90;999.90;;;14.60;99.90;;;;;;5093117;28;20673;-66
2022/10/21 04:46:40;;;;;;;1999.90;999.90;;;14.70;99.90;;;;;;5109454;28;20418;-66
2022/10/21 04:49:06;;;;;;;1999.90;999.90;;;14.70;99.90;;;;;;5113440;28;20205;-67
2022/10/21 04:51:31;;;;;;;1999.90;999.90;;;14.80;99.90;;;;;;5113479;28;20543;-66
2022/10/21 04:53:57;;;;;;;1999.90;999.90;;;14.70;99.90;;;;;;5113393;28;20174;-65
2022/10/21 04:56:23;;;;;;;1999.90;999.90;;;14.90;99.90;;;;;;5113294;28;20252;-67
2022/10/21 04:58:48;;;;;;;1999.90;999.90;;;14.90;99.90;;;;;;5113166;28;20645;-66
2022/10/21 05:01:14;;;;;;;1999.90;999.90;;;14.90;99.90;;;;;;5113166;28;20256;-67
2022/10/21 05:03:39;;;;;;;1999.90;999.90;;;14.90;99.90;;;;;;5113099;28;20197;-67
2022/10/21 05:06:05;;;;;;;1999.90;999.90;;;14.90;99.90;;;;;;5113140;28;20179;-67
2022/10/21 05:08:31;;;;;;;1999.90;999.90;;;14.90;99.90;;;;;;5113196;28;20643;-67
2022/10/21 05:10:59;;;;;;;1999.90;999.90;;;14.90;99.90;;;;;;5113081;28;20667;-66
2022/10/21 05:13:25;;;;;;;1999.90;999.90;;;14.90;99.90;;;;;;5112891;28;20197;-66
2022/10/21 05:15:50;;;;;;;1999.90;999.90;;;14.90;99.90;;;;;;5112829;28;20500;-67
2022/10/21 05:18:16;;;;;;;1999.90;999.90;;;14.90;99.90;;;;;;5112753;28;20546;-66
2022/10/21 05:20:42;;;;;;;1999.90;999.90;;;15.00;99.90;;;;;;5113066;28;20559;-66
2022/10/21 05:23:07;;;;;;;1999.90;999.90;;;15.00;99.90;;;;;;5112869;28;20702;-67
2022/10/21 05:25:33;;;;;;;1999.90;999.90;;;14.90;99.90;;;;;;5112905;28;20166;-67
2022/10/21 05:27:58;;;;;;;1999.90;999.90;;;15.00;99.90;;;;;;5112487;28;20167;-67
2022/10/21 05:30:24;;;;;;;1999.90;999.90;;;15.00;99.90;;;;;;5112697;28;20192;-66
2022/10/21 05:32:49;;;;;;;1999.90;999.90;;;15.00;99.90;;;;;;5112600;28;20294;-67
2022/10/21 05:35:15;;;;;;;1999.90;999.90;;;15.00;99.90;;;;;;5112750;28;20173;-67
2022/10/21 05:37:40;;;;;;;1999.90;999.90;;;15.00;99.90;;;;;;5112426;28;20722;-67
2022/10/21 05:40:07;;;;;;;1999.90;999.90;;;15.10;99.90;;;;;;5112561;28;20222;-67
2022/10/21 05:42:32;;;;;;;1999.90;999.90;;;15.10;99.90;;;;;;5112646;28;20664;-67
2022/10/21 05:44:58;;;;;;;1999.90;999.90;;;15.10;99.90;;;;;;5112503;28;20464;-66
2022/10/21 05:47:23;;;;;;;1999.90;999.90;;;15.10;99.90;;;;;;5112434;28;20217;-65
2022/10/21 05:49:50;;;;;;;1999.90;999.90;;;15.10;99.90;;;;;;5112565;28;20166;-66
2022/10/21 05:52:15;;;;;;;1999.90;999.90;;;15.10;99.90;;;;;;5112370;28;20651;-66
2022/10/21 05:54:41;;;;;;;1999.90;999.90;;;15.10;99.90;;;;;;5112477;28;20466;-66
2022/10/21 05:57:06;;;;;;;1999.90;999.90;;;15.00;99.90;;;;;;5112274;28;20177;-66
2022/10/21 05:59:32;;;;;;;1999.90;999.90;;;15.10;99.90;;;;;;5112369;28;20183;-66
2022/10/21 06:01:57;;;;;;;1999.90;999.90;;;15.10;99.90;;;;;;5112225;28;20768;-67
2022/10/21 06:04:23;;;;;;;1999.90;999.90;;;15.10;99.90;;;;;;5112376;28;20198;-66
2022/10/21 06:06:48;;;;;;;1999.90;999.90;;;15.00;99.90;;;;;;5112034;28;20166;-67
2022/10/21 06:09:14;;;;;;;1999.90;999.90;;;15.00;99.90;;;;;;5112195;28;20174;-65
2022/10/21 06:11:40;;;;;;;1999.90;999.90;;;15.00;99.90;;;;;;5105561;28;20201;-67
2022/10/21 06:14:05;;;;;;;1999.90;999.90;;;15.00;99.90;;;;;;5091779;28;20663;-66
2022/10/21 06:16:34;;;;;;;1999.90;999.90;;;15.00;99.90;;;;;;5091982;28;20178;-66
2022/10/21 06:19:00;;;;;;;1999.90;999.90;;;15.00;99.90;;;;;;5091895;28;20191;-66
2022/10/21 06:21:25;;;;;;;1999.90;999.90;;;15.00;99.90;;;;;;5091883;28;20418;-66
2022/10/21 06:23:54;;;;;;;1999.90;999.90;;;15.00;99.90;;;;;;5092685;28;20467;-66
2022/10/21 06:26:20;;;;;;;1999.90;999.90;;;15.00;99.90;;;;;;5107717;28;20168;-66
2022/10/21 06:28:46;;;;;;;1999.90;999.90;;;15.00;99.90;;;;;;5094862;28;20406;-66
2022/10/21 06:31:14;;;;;;;1999.90;999.90;;;15.00;99.90;;;;;;5095537;28;20254;-66
2022/10/21 06:33:40;;;;;;;1999.90;999.90;;;15.00;99.90;;;;;;5095921;28;20158;-66
2022/10/21 06:36:06;;;;;;;1999.90;999.90;;;15.00;99.90;;;;;;5095677;28;20453;-66
2022/10/21 06:38:32;;;;;;;1999.90;999.90;;;15.00;99.90;;;;;;5095517;28;20416;-66
2022/10/21 06:41:10;;;;;;;1999.90;999.90;;;15.10;99.90;;;;;;5095626;28;20253;-66
2022/10/21 06:43:35;;;;;;;1999.90;999.90;;;15.10;99.90;;;;;;5095840;28;20447;-67
2022/10/21 06:46:04;;;;;;;1999.90;999.90;;;15.10;99.90;;;;;;5095395;28;20754;-66
2022/10/21 06:48:30;;;;;;;1999.90;999.90;;;15.10;99.90;;;;;;5095384;28;20192;-66
2022/10/21 06:51:08;;;;;;;1999.90;999.90;;;15.20;99.90;;;;;;5095382;28;20408;-66
2022/10/21 06:53:34;;;;;;;1999.90;999.90;;;15.20;99.90;;;;;;5095493;28;20173;-66
2022/10/21 06:56:26;;;;;;;1999.90;999.90;;;15.20;99.90;;;;;;5095207;28;20438;-67
2022/10/21 06:58:52;;;;;;;1999.90;999.90;;;15.30;99.90;;;;;;5091312;28;20845;-66
2022/10/21 07:01:31;;;;;;;1999.90;999.90;;;15.20;99.90;;;;;;5095004;28;20408;-66
2022/10/21 07:03:57;;;;;;;1999.90;999.90;;;15.30;99.90;;;;;;5095196;28;20454;-66
2022/10/21 07:06:23;;;;;;;1999.90;999.90;;;15.30;99.90;;;;;;5095022;28;20439;-67
2022/10/21 07:08:49;;;;;;;1999.90;999.90;;;15.30;99.90;;;;;;5094941;28;20181;-66
2022/10/21 07:11:14;;;;;;;1999.90;999.90;;;15.30;99.90;;;;;;5095077;28;20515;-66
2022/10/21 07:13:40;;;;;;;1999.90;999.90;;;15.40;99.90;;;;;;5094968;28;20632;-67
2022/10/21 07:16:12;;;;;;;1999.90;999.90;;;15.40;99.90;;;;;;5094821;28;20413;-67
2022/10/21 07:18:38;;;;;;;1999.90;999.90;;;15.40;99.90;;;;;;5094824;28;20179;-67
2022/10/21 07:21:05;;;;;;;1999.90;999.90;;;15.40;99.90;;;;;;5094800;28;20405;-66
2022/10/21 07:23:31;;;;;;;1999.90;999.90;;;15.50;99.90;;;;;;5094640;28;20203;-65
2022/10/21 07:25:57;;;;;;;1999.90;999.90;;;15.60;99.90;;;;;;5094668;28;20406;-66
2022/10/21 07:28:22;;;;;;;1999.90;999.90;;;15.70;99.90;;;;;;5094507;28;20249;-66
2022/10/21 07:30:48;;;;;;;1999.90;999.90;;;15.70;99.90;;;;;;5094699;28;20200;-66
2022/10/21 07:33:14;;;;;;;1999.90;999.90;;;15.70;99.90;;;;;;5094438;28;20214;-67
2022/10/21 07:35:40;;;;;;;1999.90;999.90;;;15.70;99.90;;;;;;5093431;28;20409;-67
2022/10/21 07:38:06;;;;;;;1999.90;999.90;;;15.70;99.90;;;;;;5094302;28;20171;-67
2022/10/21 07:40:37;;;;;;;1999.90;999.90;;;15.70;99.90;;;;;;5094570;28;20252;-66
2022/10/21 07:43:02;;;;;;;1999.90;999.90;;;15.70;99.90;;;;;;5094282;28;20508;-67
2022/10/21 07:45:28;;;;;;;1999.90;999.90;;;15.70;99.90;;;;;;5094502;28;20492;-66
2022/10/21 07:47:54;;;;;;;1999.90;999.90;;;15.70;99.90;;;;;;5094164;28;20173;-67
2022/10/21 07:50:19;;;;;;;1999.90;999.90;;;15.70;99.90;;;;;;5094300;28;20168;-67
2022/10/21 07:52:46;;;;;;;1999.90;999.90;;;15.70;99.90;;;;;;5094227;28;20538;-66
2022/10/21 07:55:13;;;;;;;1999.90;999.90;;;15.80;99.90;;;;;;5094364;28;20193;-67
2022/10/21 07:57:39;;;;;;;1999.90;999.90;;;15.80;99.90;;;;;;5093972;28;20867;-67
2022/10/21 08:00:06;;;;;;;1999.90;999.90;;;15.80;99.90;;;;;;5094112;28;20449;-67
2022/10/21 08:02:31;;;;;;;1999.90;999.90;;;15.80;99.90;;;;;;5093984;28;20426;-67
2022/10/21 08:04:57;;;;;;;1999.90;999.90;;;15.80;99.90;;;;;;5093981;28;20515;-67
2022/10/21 08:07:23;;;;;;;1999.90;999.90;;;15.90;99.90;;;;;;5093765;28;20187;-67
2022/10/21 08:09:48;;;;;;;1999.90;999.90;;;15.90;99.90;;;;;;5093839;28;20184;-67
2022/10/21 08:12:14;;;;;;;1999.90;999.90;;;15.80;99.90;;;;;;5093769;28;20231;-67
2022/10/21 08:14:39;;;;;;;1999.90;999.90;;;15.90;99.90;;;;;;5093888;28;20199;-66
2022/10/21 08:17:05;;;;;;;1999.90;999.90;;;15.90;99.90;;;;;;5093543;28;20170;-67
2022/10/21 08:19:31;;;;;;;1999.90;999.90;;;15.90;99.90;;;;;;5093772;28;20170;-67
2022/10/21 08:21:57;;;;;;;1999.90;999.90;;;15.90;99.90;;;;;;5093672;28;20195;-67
2022/10/21 08:24:23;;;;;;;1999.90;999.90;;;15.90;99.90;;;;;;5093710;28;20193;-67
2022/10/21 08:26:50;;;;;;;1999.90;999.90;;;15.90;99.90;;;;;;5093480;28;20396;-67
2022/10/21 08:29:16;;;;;;;1999.90;999.90;;;15.80;99.90;;;;;;5093425;28;20881;-66
2022/10/21 08:31:41;;;;;;;1999.90;999.90;;;15.80;99.90;;;;;;5093296;28;20443;-65
2022/10/21 08:34:08;;;;;;;1999.90;999.90;;;15.80;99.90;;;;;;5093469;28;20630;-66
2022/10/21 08:36:33;;;;;;;1999.90;999.90;;;15.80;99.90;;;;;;5093402;28;20542;-65
2022/10/21 08:38:59;;;;;;;1999.90;999.90;;;15.80;99.90;;;;;;5093180;28;20416;-67
2022/10/21 08:41:27;;;;;;;1999.90;999.90;;;15.90;99.90;;;;;;5093317;28;20200;-66
2022/10/21 08:43:57;;;;;;;1999.90;999.90;;;15.90;99.90;;;;;;5093147;28;20202;-66
2022/10/21 08:46:28;;;;;;;1999.90;999.90;;;15.90;99.90;;;;;;5092703;28;20832;-67
2022/10/21 08:49:14;;;;;;;1999.90;999.90;;;16.00;99.90;;;;;;5103050;22;21031;-71
2022/10/21 08:51:56;;;;;;;1999.90;999.90;;;16.00;99.90;;;;;;5073291;28;20406;-71
2022/10/21 08:54:43;;;;;;;1999.90;999.90;;;16.00;99.90;;;;;;5073254;28;20847;-71
2022/10/21 08:57:11;;;;;;;1999.90;999.90;;;16.00;99.90;;;;;;5073067;28;20402;-71
2022/10/21 08:59:40;;;;;;;1999.90;999.90;;;16.00;99.90;;;;;;5086439;28;20432;-71
2022/10/21 09:02:20;;;;;;;1999.90;999.90;;;16.00;99.90;;;;;;5093564;28;20394;-71
2022/10/21 09:04:57;;;;;;;1999.90;999.90;;;16.00;99.90;;;;;;5093362;28;20805;-71
2022/10/21 09:07:47;;;;;;;1999.90;999.90;;;16.00;99.90;;;;;;5093284;28;20448;-71
2022/10/21 09:10:37;;;;;;;1999.90;999.90;;;16.10;99.90;;;;;;5092998;28;20417;-71
2022/10/21 09:13:30;;;;;;;1999.90;999.90;;;16.00;99.90;;;;;;5093051;28;20404;-71
2022/10/21 09:16:14;;;;;;;1999.90;999.90;;;16.00;99.90;;;;;;5093133;28;20425;-71
2022/10/21 09:19:00;;;;;;;1999.90;999.90;;;16.10;99.90;;;;;;5092699;28;20422;-71
2022/10/21 09:21:34;;;;;;;1999.90;999.90;;;16.10;99.90;;;;;;5092779;28;20386;-71
2022/10/21 09:24:07;;;;;;;1999.90;999.90;;;16.10;99.90;;;;;;5092746;28;20482;-71
2022/10/21 09:26:41;;;;;;;1999.90;999.90;;;16.10;99.90;;;;;;5091475;28;20447;-71
2022/10/21 09:29:25;;;;;;;1999.90;999.90;;;16.20;99.90;;;;;;5092884;28;20418;-70
2022/10/21 09:31:51;;;;;;;1999.90;999.90;;;16.30;99.90;;;;;;5092556;28;20487;-70
2022/10/21 09:34:43;;;;;;;1999.90;999.90;;;16.30;99.90;;;;;;5092677;28;20947;-72
2022/10/21 09:37:24;;;;;;;1999.90;999.90;;;16.30;99.90;;;;;;5092833;28;20180;-71
2022/10/21 09:39:58;;;;;;;1999.90;999.90;;;16.40;99.90;;;;;;5092535;28;20942;-70
2022/10/21 09:42:24;;;;;;;1999.90;999.90;;;16.50;99.90;;;;;;5092288;28;20880;-70
2022/10/21 09:44:50;;;;;;;1999.90;999.90;;;16.60;99.90;;;;;;5092024;28;20454;-72
2022/10/21 09:47:22;;;;;;;1999.90;999.90;;;16.60;99.90;;;;;;5089591;28;20172;-69
2022/10/21 09:49:52;;;;;;;1999.90;999.90;;;16.60;99.90;;;;;;5111510;28;20194;-69
2022/10/21 09:52:20;;;;;;;1999.90;999.90;;;16.60;99.90;;;;;;5111982;28;20397;-71
2022/10/21 09:54:46;;;;;;;1999.90;999.90;;;16.50;99.90;;;;;;5110973;28;20409;-70
2022/10/21 09:57:17;;;;;;;1999.90;999.90;;;16.60;99.90;;;;;;5105666;28;20935;-71
2022/10/21 09:59:50;;;;;;;1999.90;999.90;;;16.60;99.90;;;;;;5089330;28;20423;-71
2022/10/21 10:02:24;;;;;;;1999.90;999.90;;;16.60;99.90;;;;;;5091326;28;20822;-70
2022/10/21 10:04:49;;;;;;;1999.90;999.90;;;16.60;99.90;;;;;;5091072;28;20865;-71
2022/10/21 10:07:32;;;;;;;1999.90;999.90;;;16.60;99.90;;;;;;5090105;28;20486;-70
2022/10/21 10:09:57;;;;;;;1999.90;999.90;;;16.50;99.90;;;;;;5090897;28;20559;-72
2022/10/21 10:12:25;;;;;;;1999.90;999.90;;;16.50;99.90;;;;;;5090869;28;20414;-73
2022/10/21 10:14:51;;;;;;;1999.90;999.90;;;16.50;99.90;;;;;;5090740;28;20298;-70
2022/10/21 10:17:28;;;;;;;1999.90;999.90;;;16.50;99.90;;;;;;5090869;28;20888;-73
2022/10/21 10:20:10;;;;;;;1999.90;999.90;;;16.60;99.90;;;;;;5091678;28;20965;-71
2022/10/21 10:23:07;;;;;;;1999.90;999.90;;;16.60;99.90;;;;;;5107987;28;20417;-72
2022/10/21 10:25:36;;;;;;;1999.90;999.90;;;16.70;99.90;;;;;;5103267;28;20427;-72
2022/10/21 10:28:07;;;;;;;1999.90;999.90;;;16.80;99.90;;;;;;5110374;28;20397;-72
2022/10/21 10:30:46;;;;;;;1999.90;999.90;;;16.90;99.90;;;;;;5093000;28;20388;-71
2022/10/21 10:33:29;;;;;;;1999.90;999.90;;;17.00;99.90;;;;;;5090957;28;20407;-71
2022/10/21 10:36:00;;;;;;;1999.90;999.90;;;17.10;99.90;;;;;;5090888;28;20405;-70
2022/10/21 10:38:37;;;;;;;1999.90;999.90;;;17.20;99.90;;;;;;5090773;28;20757;-70
2022/10/21 10:41:15;;;;;;;1999.90;999.90;;;17.30;99.90;;;;;;5091094;28;20443;-71
2022/10/21 10:43:46;;;;;;;1999.90;999.90;;;17.40;99.90;;;;;;5090878;28;20445;-71
2022/10/21 10:46:27;;;;;;;1999.90;999.90;;;17.40;99.90;;;;;;5090896;28;20899;-71
2022/10/21 10:48:54;;;;;;;1999.90;999.90;;;17.40;99.90;;;;;;5090618;28;20544;-71
2022/10/21 10:51:26;;;;;;;1999.90;999.90;;;17.50;99.90;;;;;;5090455;28;20418;-72
2022/10/21 10:54:01;;;;;;;1999.90;999.90;;;17.50;99.90;;;;;;5090505;28;20471;-72
2022/10/21 10:56:37;;;;;;;1999.90;999.90;;;17.70;99.90;;;;;;5090920;28;20402;-71
2022/10/21 10:59:27;;;;;;;1999.90;999.90;;;17.70;99.90;;;;;;5090473;28;20483;-71
2022/10/21 11:02:34;;;;;;;1999.90;999.90;;;17.90;99.90;;;;;;5090973;28;20404;-71
2022/10/21 11:05:06;;;;;;;1999.90;999.90;;;18.10;99.90;;;;;;5090576;28;20455;-71
2022/10/21 11:07:48;;;;;;;1999.90;999.90;;;18.20;99.90;;;;;;5090156;28;20812;-71
2022/10/21 11:10:27;;;;;;;1999.90;999.90;;;18.30;99.90;;;;;;5092008;28;20415;-71
2022/10/21 11:12:53;;;;;;;1999.90;999.90;;;18.50;99.90;;;;;;5093981;28;20400;-71
2022/10/21 11:15:21;;;;;;;1999.90;999.90;;;18.60;99.90;;;;;;5094229;28;20409;-71
2022/10/21 11:18:00;;;;;;;1999.90;999.90;;;18.80;99.90;;;;;;5093851;28;20165;-71
2022/10/21 11:20:35;;;;;;;1999.90;999.90;;;18.90;99.90;;;;;;5093697;28;20505;-71
2022/10/21 11:23:39;;;;;;;1999.90;999.90;;;19.10;99.90;;;;;;5094591;28;20940;-71
2022/10/21 11:26:29;;;;;;;1999.90;999.90;;;19.30;99.90;;;;;;5094124;28;20415;-71
2022/10/21 11:28:57;;;;;;;1999.90;999.90;;;19.60;99.90;;;;;;5092932;28;20447;-72
2022/10/21 11:31:33;;;;;;;1999.90;999.90;;;19.90;99.90;;;;;;5094248;28;20416;-71
2022/10/21 11:34:13;;;;;;;1999.90;999.90;;;20.30;99.90;;;;;;5093776;28;20392;-72
2022/10/21 11:37:04;;;;;;;1999.90;999.90;;;20.60;99.90;;;;;;5093739;28;20407;-71
2022/10/21 11:39:42;;;;;;;1999.90;999.90;;;21.10;99.90;;;;;;5093815;28;20417;-71
2022/10/21 11:42:21;;;;;;;1999.90;999.90;;;21.60;99.90;;;;;;5093741;28;20402;-71
2022/10/21 11:45:11;;;;;;;1999.90;999.90;;;22.20;99.90;;;;;;5094149;28;20434;-71
2022/10/21 11:47:37;;;;;;;1999.90;999.90;;;22.40;99.90;;;;;;5093265;28;20493;-72
2022/10/21 11:50:15;;;;;;;1999.90;999.90;;;22.90;99.90;;;;;;5093333;28;20673;-71
2022/10/21 11:53:10;;;;;;;1999.90;999.90;;;23.70;99.90;;;;;;5093369;28;20166;-71
2022/10/21 11:56:11;;;;;;;1999.90;999.90;;;25.00;99.90;;;;;;5093362;28;20371;-71
2022/10/21 11:59:03;;;;;;;1999.90;999.90;;;25.80;99.90;;;;;;5092873;28;20424;-71
2022/10/21 12:01:47;;;;;;;1999.90;999.90;;;26.40;99.90;;;;;;5093765;28;20796;-70
2022/10/21 12:04:33;;;;;;;1999.90;999.90;;;26.70;99.90;;;;;;5092847;28;20885;-71
2022/10/21 12:07:30;;;;;;;1999.90;999.90;;;27.10;99.90;;;;;;5085171;28;20951;-71
2022/10/21 12:10:09;;;;;;;1999.90;999.90;;;27.50;99.90;;;;;;5093080;28;20391;-72
2022/10/21 12:12:39;;;;;;;1999.90;999.90;;;27.70;99.90;;;;;;5092462;28;20396;-72
2022/10/21 12:15:31;;;;;;;1999.90;999.90;;;27.80;99.90;;;;;;5092907;28;20409;-72